createdAt,value
2019-04-09T00:01:12.219Z,11.00
2019-04-09T00:03:41.611Z,10.60
2019-04-09T00:06:10.863Z,10.10
2019-04-09T00:08:40.064Z,10.53
2019-04-09T00:11:09.026Z,10.00
2019-04-09T00:13:38.220Z,10.27
2019-04-09T00:16:07.292Z,9.97
2019-04-09T00:18:35.963Z,10.03
2019-04-09T00:21:25.595Z,9.90
2019-04-09T00:23:55.097Z,10.23
2019-04-09T00:26:24.955Z,10.03
2019-04-09T00:28:53.902Z,10.80
2019-04-09T00:31:22.826Z,9.57
2019-04-09T00:34:11.229Z,9.50
2019-04-09T00:36:40.100Z,9.53
2019-04-09T00:39:10.079Z,8.93
2019-04-09T00:41:39.956Z,10.33
2019-04-09T00:44:09.003Z,9.93
2019-04-09T00:46:38.205Z,9.43
2019-04-09T00:49:07.245Z,9.40
2019-04-09T00:51:37.176Z,9.57
2019-04-09T00:54:27.388Z,9.93
2019-04-09T00:57:02.614Z,9.77
2019-04-09T00:59:28.323Z,9.30
2019-04-09T01:02:16.879Z,12.90
2019-04-09T01:04:46.451Z,9.50
2019-04-09T01:07:16.628Z,9.07
2019-04-09T01:09:45.882Z,9.27
2019-04-09T01:12:34.601Z,9.60
2019-04-09T01:15:04.451Z,8.53
2019-04-09T01:17:33.924Z,12.40
2019-04-09T01:20:03.091Z,8.87
2019-04-09T01:22:32.884Z,8.63
2019-04-09T01:25:20.694Z,9.07
2019-04-09T01:28:12.896Z,8.80
2019-04-09T01:30:58.994Z,9.10
2019-04-09T01:33:47.340Z,8.60
2019-04-09T01:36:23.396Z,8.93
2019-04-09T01:39:14.168Z,9.13
2019-04-09T01:41:53.868Z,9.33
2019-04-09T01:44:32.079Z,9.43
2019-04-09T01:50:21.480Z,9.10
2019-04-09T01:53:30.024Z,8.70
2019-04-09T01:56:37.314Z,7.80
2019-04-09T01:59:44.938Z,8.03
2019-04-09T02:02:51.935Z,8.10
2019-04-09T02:05:59.016Z,8.30
2019-04-09T02:09:06.313Z,9.17
2019-04-09T02:12:14.474Z,8.13
2019-04-09T02:15:21.593Z,8.47
2019-04-09T02:18:29.698Z,8.50
2019-04-09T02:21:27.525Z,8.43
2019-04-09T02:24:26.610Z,8.57
2019-04-09T02:27:38.540Z,8.17
2019-04-09T02:30:36.031Z,8.93
2019-04-09T02:33:45.976Z,9.13
2019-04-09T02:36:54.999Z,9.03
2019-04-09T02:40:03.190Z,8.37
2019-04-09T02:43:10.375Z,8.20
2019-04-09T02:46:18.091Z,8.33
2019-04-09T02:49:12.495Z,8.00
2019-04-09T02:54:46.198Z,7.83
2019-04-09T03:00:23.812Z,8.00
2019-04-09T03:03:18.040Z,7.87
2019-04-09T03:09:31.001Z,8.00
2019-04-09T03:12:31.454Z,7.40
2019-04-09T03:15:24.190Z,7.60
2019-04-09T03:18:13.498Z,7.90
2019-04-09T03:20:48.656Z,7.53
2019-04-09T03:23:33.384Z,8.03
2019-04-09T03:26:14.950Z,6.83
2019-04-09T03:29:02.932Z,7.33
2019-04-09T03:32:10.349Z,8.40
2019-04-09T03:35:18.223Z,7.43
2019-04-09T03:38:26.324Z,7.97
2019-04-09T03:41:05.981Z,7.77
2019-04-09T03:43:41.249Z,8.33
2019-04-09T03:46:25.290Z,8.00
2019-04-09T03:49:00.205Z,7.50
2019-04-09T03:51:48.206Z,7.60
2019-04-09T03:54:55.533Z,7.63
2019-04-09T03:57:44.308Z,8.03
2019-04-09T04:00:22.916Z,7.57
2019-04-09T04:03:17.904Z,7.87
2019-04-09T04:06:06.238Z,7.50
2019-04-09T04:08:54.210Z,6.90
2019-04-09T04:11:48.251Z,7.00
2019-04-09T04:14:36.616Z,7.40
2019-04-09T04:23:47.770Z,7.40
2019-04-09T04:26:54.805Z,7.67
2019-04-09T04:30:02.301Z,7.00
2019-04-09T04:33:09.399Z,6.90
2019-04-09T04:36:03.977Z,7.57
2019-04-09T04:39:12.359Z,7.53
2019-04-09T04:42:21.307Z,7.10
2019-04-09T04:45:28.434Z,7.63
2019-04-09T04:48:24.125Z,7.00
2019-04-09T04:51:27.099Z,7.97
2019-04-09T04:54:27.973Z,7.60
2019-04-09T05:00:35.876Z,6.37
2019-04-09T05:03:28.379Z,7.03
2019-04-09T05:06:17.785Z,7.27
2019-04-09T05:09:08.421Z,7.97
2019-04-09T05:12:09.648Z,7.20
2019-04-09T05:15:09.685Z,7.00
2019-04-09T05:18:01.501Z,6.93
2019-04-09T05:21:01.947Z,6.23
2019-04-09T05:27:14.875Z,6.87
2019-04-09T05:30:20.384Z,6.63
2019-04-09T05:33:22.477Z,6.27
2019-04-09T05:36:25.518Z,6.73
2019-04-09T05:39:17.688Z,6.60
2019-04-09T05:42:19.177Z,7.43
2019-04-09T05:45:25.746Z,6.90
2019-04-09T05:48:28.309Z,7.10
2019-04-09T05:51:28.266Z,7.27
2019-04-09T05:54:29.138Z,6.70
2019-04-09T05:57:25.638Z,6.40
2019-04-09T06:00:26.117Z,6.70
2019-04-09T06:03:13.880Z,10.20
2019-04-09T06:06:21.949Z,6.80
2019-04-09T06:09:29.149Z,6.57
2019-04-09T06:12:17.129Z,6.87
2019-04-09T06:14:51.743Z,6.30
2019-04-09T06:20:27.759Z,6.43
2019-04-09T06:23:16.137Z,6.57
2019-04-09T06:26:07.225Z,6.30
2019-04-09T06:28:55.406Z,6.60
2019-04-09T06:31:43.845Z,6.67
2019-04-09T06:38:05.561Z,6.80
2019-04-09T06:41:01.352Z,6.80
2019-04-09T06:44:08.873Z,6.83
2019-04-09T06:47:16.141Z,7.00
2019-04-09T06:50:10.049Z,6.20
2019-04-09T06:53:01.244Z,7.23
2019-04-09T06:59:11.307Z,6.00
2019-04-09T07:05:00.481Z,6.50
2019-04-09T07:08:00.808Z,6.33
2019-04-09T07:11:10.779Z,6.77
2019-04-09T07:14:04.198Z,6.63
2019-04-09T07:17:07.887Z,6.47
2019-04-09T07:19:56.790Z,6.53
2019-04-09T07:23:15.558Z,5.83
2019-04-09T07:26:14.257Z,6.57
2019-04-09T07:29:06.245Z,6.70
2019-04-09T07:34:51.757Z,6.20
2019-04-09T07:37:42.517Z,5.43
2019-04-09T07:40:34.314Z,6.40
2019-04-09T07:46:32.918Z,5.93
2019-04-09T07:49:20.879Z,6.17
2019-04-09T07:51:58.980Z,6.60
2019-04-09T07:54:49.583Z,6.20
2019-04-09T07:57:39.329Z,6.33
2019-04-09T08:00:27.037Z,5.90
2019-04-09T08:06:18.734Z,5.97
2019-04-09T08:09:06.675Z,6.10
2019-04-09T08:12:13.084Z,5.90
2019-04-09T08:15:06.124Z,5.80
2019-04-09T08:18:04.003Z,5.43
2019-04-09T08:20:37.950Z,5.90
2019-04-09T08:23:22.757Z,5.80
2019-04-09T08:26:10.643Z,5.97
2019-04-09T08:28:58.777Z,6.23
2019-04-09T08:32:12.417Z,5.33
2019-04-09T08:34:45.983Z,5.63
2019-04-09T08:37:28.274Z,6.27
2019-04-09T08:40:35.677Z,5.70
2019-04-09T08:43:24.569Z,5.87
2019-04-09T08:46:13.723Z,5.87
2019-04-09T08:49:02.100Z,5.70
2019-04-09T08:51:40.278Z,6.03
2019-04-09T08:54:30.080Z,6.40
2019-04-09T08:57:09.826Z,5.20
2019-04-09T08:59:55.769Z,5.50
2019-04-09T09:02:45.789Z,5.60
2019-04-09T09:05:25.088Z,5.37
2019-04-09T09:08:07.110Z,5.40
2019-04-09T09:10:54.979Z,6.27
2019-04-09T09:13:43.588Z,4.87
2019-04-09T09:16:34.427Z,5.40
2019-04-09T09:19:40.556Z,5.73
2019-04-09T09:22:30.984Z,4.87
2019-04-09T09:25:18.027Z,4.90
2019-04-09T09:28:12.073Z,6.37
2019-04-09T09:31:12.851Z,5.10
2019-04-09T09:36:46.465Z,4.87
2019-04-09T09:39:53.614Z,5.70
2019-04-09T09:43:02.229Z,5.90
2019-04-09T09:46:10.362Z,5.30
2019-04-09T09:49:17.632Z,4.70
2019-04-09T09:52:25.013Z,6.70
2019-04-09T09:55:22.657Z,7.30
2019-04-09T09:58:16.393Z,4.47
2019-04-09T10:01:09.156Z,8.33
2019-04-09T10:04:13.336Z,4.87
2019-04-09T10:07:01.994Z,5.73
2019-04-09T10:10:09.422Z,4.97
2019-04-09T10:13:17.597Z,4.63
2019-04-09T10:19:02.926Z,7.87
2019-04-09T10:21:55.187Z,6.33
2019-04-09T10:24:41.733Z,6.33
2019-04-09T10:27:22.078Z,4.47
2019-04-09T10:30:08.517Z,5.60
2019-04-09T10:33:13.207Z,4.83
2019-04-09T10:36:05.098Z,4.80
2019-04-09T10:38:43.309Z,6.90
2019-04-09T10:41:38.633Z,7.70
2019-04-09T10:44:31.461Z,6.47
2019-04-09T10:47:18.197Z,5.23
2019-04-09T10:49:59.695Z,7.50
2019-04-09T10:52:56.879Z,4.10
2019-04-09T10:55:56.582Z,5.90
2019-04-09T10:58:54.097Z,4.87
2019-04-09T11:01:38.412Z,4.43
2019-04-09T11:04:21.195Z,4.60
2019-04-09T11:07:07.564Z,5.13
2019-04-09T11:09:50.350Z,6.53
2019-04-09T11:12:40.088Z,4.40
2019-04-09T11:15:26.465Z,4.07
2019-04-09T11:18:13.802Z,4.33
2019-04-09T11:21:07.781Z,4.73
2019-04-09T11:24:01.094Z,4.00
2019-04-09T11:26:51.755Z,4.10
2019-04-09T11:29:39.618Z,3.73
2019-04-09T11:32:40.289Z,4.23
2019-04-09T11:35:28.261Z,3.70
2019-04-09T11:38:15.348Z,2.40
2019-04-09T11:41:12.811Z,2.87
2019-04-09T11:44:19.274Z,2.00
2019-04-09T11:47:01.167Z,2.67
2019-04-09T11:49:49.146Z,2.10
2019-04-09T11:52:34.789Z,1.70
2019-04-09T11:55:31.678Z,1.40
2019-04-09T11:58:28.254Z,1.50
2019-04-09T12:01:18.774Z,2.15
2019-04-09T12:04:05.634Z,1.67
2019-04-09T12:07:06.126Z,1.32
2019-04-09T12:09:50.478Z,1.35
2019-04-09T12:12:37.972Z,1.15
2019-04-09T12:15:35.428Z,1.30
2019-04-09T12:18:22.157Z,1.02
2019-04-09T12:21:02.789Z,1.10
2019-04-09T12:23:49.573Z,1.62
2019-04-09T12:26:26.020Z,1.00
2019-04-09T12:29:22.123Z,1.12
2019-04-09T12:32:14.607Z,1.43
2019-04-09T12:35:03.377Z,2.10
2019-04-09T12:37:48.352Z,2.10
2019-04-09T12:40:45.559Z,1.60
2019-04-09T12:43:49.339Z,1.30
2019-04-09T12:46:43.960Z,1.40
2019-04-09T12:49:31.975Z,1.20
2019-04-09T12:52:18.505Z,1.30
2019-04-09T12:55:08.765Z,1.15
2019-04-09T12:57:50.986Z,1.02
2019-04-09T13:00:27.625Z,1.00
2019-04-09T13:03:16.664Z,1.20
2019-04-09T13:06:05.853Z,1.10
2019-04-09T13:08:52.874Z,1.22
2019-04-09T13:11:42.422Z,1.20
2019-04-09T13:14:33.356Z,1.20
2019-04-09T13:17:33.987Z,1.35
2019-04-09T13:20:26.174Z,1.40
2019-04-09T13:23:08.120Z,1.72
2019-04-09T13:26:12.738Z,1.15
2019-04-09T13:29:06.987Z,1.30
2019-04-09T13:31:53.273Z,1.20
2019-04-09T13:34:29.312Z,1.12
2019-04-09T13:37:10.554Z,1.10
2019-04-09T13:39:50.676Z,1.00
2019-04-09T13:42:30.950Z,1.37
2019-04-09T13:45:09.601Z,1.40
2019-04-09T13:47:45.712Z,1.97
2019-04-09T13:50:37.022Z,2.07
2019-04-09T13:53:06.699Z,2.47
2019-04-09T13:55:36.521Z,2.57
2019-04-09T13:58:06.533Z,3.33
2019-04-09T14:00:36.091Z,3.00
2019-04-09T14:03:37.072Z,3.23
2019-04-09T14:06:00.806Z,4.03
2019-04-09T14:08:29.432Z,3.27
2019-04-09T14:10:59.736Z,3.70
2019-04-09T14:13:28.431Z,3.20
2019-04-09T14:15:57.082Z,3.20
2019-04-09T14:18:26.247Z,3.40
2019-04-09T14:20:55.951Z,3.10
2019-04-09T14:23:25.885Z,3.50
2019-04-09T14:25:54.708Z,3.00
2019-04-09T14:28:23.747Z,3.20
2019-04-09T14:30:52.592Z,3.40
2019-04-09T14:33:21.243Z,3.50
2019-04-09T14:35:49.951Z,3.30
2019-04-09T14:38:19.688Z,3.90
2019-04-09T14:40:48.685Z,3.23
2019-04-09T14:43:17.382Z,3.73
2019-04-09T14:45:46.923Z,3.77
2019-04-09T14:48:17.116Z,4.00
2019-04-09T14:50:46.315Z,3.70
2019-04-09T14:53:16.514Z,4.43
2019-04-09T14:55:46.972Z,4.23
2019-04-09T14:58:17.106Z,4.37
2019-04-09T15:00:47.233Z,3.97
2019-04-09T15:03:23.223Z,4.57
2019-04-09T15:05:47.575Z,4.20
2019-04-09T15:08:17.210Z,5.00
2019-04-09T15:10:46.628Z,4.10
2019-04-09T15:13:16.449Z,4.40
2019-04-09T15:15:47.002Z,4.60
2019-04-09T15:18:15.973Z,4.33
2019-04-09T15:20:49.834Z,4.63
2019-04-09T15:23:19.107Z,4.63
2019-04-09T15:25:49.209Z,4.80
2019-04-09T15:28:18.432Z,4.73
2019-04-09T15:30:47.960Z,4.87
2019-04-09T15:33:27.569Z,4.40
2019-04-09T15:35:48.024Z,4.20
2019-04-09T15:38:17.422Z,4.70
2019-04-09T15:40:46.279Z,4.50
2019-04-09T15:43:15.688Z,4.43
2019-04-09T15:45:45.500Z,4.40
2019-04-09T15:48:14.760Z,4.40
2019-04-09T15:50:44.429Z,5.07
2019-04-09T15:53:27.576Z,4.10
2019-04-09T15:55:45.622Z,4.93
2019-04-09T15:58:14.894Z,4.50
2019-04-09T16:00:45.085Z,5.20
2019-04-09T16:03:22.995Z,5.00
2019-04-09T16:05:44.897Z,4.70
2019-04-09T16:08:13.810Z,4.70
2019-04-09T16:10:43.573Z,5.40
2019-04-09T16:13:12.282Z,4.93
2019-04-09T16:15:41.502Z,5.10
2019-04-09T16:18:10.523Z,4.97
2019-04-09T16:20:40.798Z,4.80
2019-04-09T16:23:09.515Z,4.80
2019-04-09T16:25:38.510Z,4.90
2019-04-09T16:28:07.500Z,5.10
2019-04-09T16:30:37.686Z,5.23
2019-04-09T16:33:13.043Z,4.83
2019-04-09T16:35:37.123Z,4.63
2019-04-09T16:38:06.033Z,4.70
2019-04-09T16:40:35.099Z,4.63
2019-04-09T16:43:04.320Z,5.60
2019-04-09T16:45:33.416Z,5.43
2019-04-09T16:48:02.242Z,5.50
2019-04-09T16:50:31.146Z,4.90
2019-04-09T16:53:00.658Z,5.37
2019-04-09T16:55:29.922Z,5.17
2019-04-09T16:58:05.316Z,5.17
2019-04-09T17:00:29.025Z,5.10
2019-04-09T17:02:59.622Z,4.80
2019-04-09T17:05:30.879Z,5.40
2019-04-09T17:07:58.928Z,5.80
2019-04-09T17:10:28.522Z,4.90
2019-04-09T17:12:58.133Z,4.90
2019-04-09T17:15:27.352Z,5.17
2019-04-09T17:17:56.248Z,5.43
2019-04-09T17:20:25.285Z,5.30
2019-04-09T17:22:54.184Z,5.03
2019-04-09T17:25:23.094Z,4.93
2019-04-09T17:27:51.806Z,5.60
2019-04-09T17:30:21.767Z,5.03
2019-04-09T17:32:51.060Z,5.70
2019-04-09T17:35:20.679Z,5.70
2019-04-09T17:37:50.567Z,5.00
2019-04-09T17:40:19.658Z,5.70
2019-04-09T17:42:49.044Z,5.40
2019-04-09T17:45:18.365Z,5.90
2019-04-09T17:47:47.543Z,5.77
2019-04-09T17:50:16.197Z,5.27
2019-04-09T17:52:45.491Z,5.93
2019-04-09T17:55:14.839Z,5.90
2019-04-09T17:57:44.496Z,5.47
2019-04-09T18:00:15.382Z,5.50
2019-04-09T18:02:44.799Z,5.13
2019-04-09T18:05:14.617Z,5.87
2019-04-09T18:07:44.591Z,5.40
2019-04-09T18:10:13.929Z,5.90
2019-04-09T18:12:43.534Z,5.30
2019-04-09T18:15:13.544Z,5.80
2019-04-09T18:17:43.855Z,5.17
2019-04-09T18:20:13.945Z,5.30
2019-04-09T18:22:43.332Z,5.67
2019-04-09T18:25:13.532Z,5.33
2019-04-09T18:27:43.631Z,5.27
2019-04-09T18:30:12.725Z,5.10
2019-04-09T18:32:41.733Z,5.93
2019-04-09T18:35:11.524Z,6.07
2019-04-09T18:37:40.546Z,5.77
2019-04-09T18:40:09.265Z,5.50
2019-04-09T18:42:39.359Z,6.07
2019-04-09T18:45:08.382Z,5.53
2019-04-09T18:47:38.199Z,5.73
2019-04-09T18:50:08.675Z,5.43
2019-04-09T18:52:38.546Z,5.87
2019-04-09T18:55:09.223Z,6.10
2019-04-09T18:57:38.838Z,6.00
2019-04-09T19:00:09.504Z,6.80
2019-04-09T19:02:38.862Z,5.33
2019-04-09T19:05:12.902Z,5.70
2019-04-09T19:07:39.345Z,6.27
2019-04-09T19:10:08.447Z,5.93
2019-04-09T19:12:37.505Z,5.63
2019-04-09T19:15:06.596Z,5.97
2019-04-09T19:17:37.174Z,5.67
2019-04-09T19:20:06.113Z,5.83
2019-04-09T19:22:35.904Z,6.23
2019-04-09T19:25:05.914Z,5.53
2019-04-09T19:27:35.907Z,6.00
2019-04-09T19:30:05.257Z,5.60
2019-04-09T19:32:34.869Z,6.10
2019-04-09T19:35:16.465Z,5.93
2019-04-09T19:37:35.627Z,5.37
2019-04-09T19:40:36.199Z,5.67
2019-04-09T19:43:06.083Z,5.83
2019-04-09T19:45:39.853Z,5.30
2019-04-09T19:48:10.229Z,5.47
2019-04-09T19:50:39.612Z,5.97
2019-04-09T19:53:09.546Z,5.70
2019-04-09T19:55:39.280Z,5.93
2019-04-09T19:58:08.483Z,5.20
2019-04-09T20:00:37.490Z,5.53
2019-04-09T20:03:07.333Z,5.70
2019-04-09T20:05:39.323Z,6.17
2019-04-09T20:08:07.233Z,5.70
2019-04-09T20:10:39.116Z,5.57
2019-04-09T20:13:08.044Z,5.70
2019-04-09T20:15:37.975Z,5.70
2019-04-09T20:18:07.148Z,5.70
2019-04-09T20:20:36.713Z,5.80
2019-04-09T20:23:05.730Z,5.60
2019-04-09T20:25:35.480Z,5.33
2019-04-09T20:28:05.543Z,5.20
2019-04-09T20:30:34.878Z,5.40
2019-04-09T20:33:05.298Z,5.90
2019-04-09T20:35:54.007Z,5.57
2019-04-09T20:38:43.739Z,5.20
2019-04-09T20:41:32.115Z,5.07
2019-04-09T20:44:20.325Z,4.90
2019-04-09T20:47:08.796Z,5.80
2019-04-09T20:52:39.839Z,5.50
2019-04-09T20:55:27.894Z,5.30
2019-04-09T20:58:08.644Z,5.70
2019-04-09T21:01:09.156Z,4.83
2019-04-09T21:04:10.110Z,5.07
2019-04-09T21:06:53.193Z,4.87
2019-04-09T21:09:34.507Z,5.33
2019-04-09T21:12:17.247Z,5.57
2019-04-09T21:14:58.079Z,5.57
2019-04-09T21:17:39.946Z,5.50
2019-04-09T21:20:22.472Z,5.67
2019-04-09T21:23:03.545Z,5.00
2019-04-09T21:25:45.094Z,4.87
2019-04-09T21:28:25.907Z,4.90
2019-04-09T21:31:06.622Z,5.50
2019-04-09T21:33:47.442Z,5.13
2019-04-09T21:36:28.038Z,5.23
2019-04-09T21:39:09.085Z,4.80
2019-04-09T21:41:49.541Z,4.23
2019-04-09T21:44:34.697Z,4.57
2019-04-09T21:47:03.908Z,4.70
2019-04-09T21:49:34.712Z,4.60
2019-04-09T21:52:22.696Z,4.73
2019-04-09T21:55:11.889Z,5.63
2019-04-09T21:57:41.727Z,5.03
2019-04-09T22:00:50.622Z,4.37
2019-04-09T22:06:23.253Z,5.17
2019-04-09T22:09:05.979Z,4.43
2019-04-09T22:11:34.642Z,4.53
2019-04-09T22:14:03.934Z,4.30
2019-04-09T22:16:32.583Z,4.67
2019-04-09T22:19:02.061Z,4.40
2019-04-09T22:21:31.291Z,3.83
2019-04-09T22:24:00.311Z,4.80
2019-04-09T22:26:29.914Z,4.87
2019-04-09T22:28:59.010Z,4.27
2019-04-09T22:31:28.072Z,4.17
2019-04-09T22:33:57.467Z,4.10
2019-04-09T22:36:32.648Z,4.03
2019-04-09T22:38:57.928Z,4.10
2019-04-09T22:41:27.115Z,4.07
2019-04-09T22:43:57.457Z,4.53
2019-04-09T22:46:27.032Z,4.50
2019-04-09T22:48:57.015Z,4.13
2019-04-09T22:51:26.465Z,3.90
2019-04-09T22:53:56.861Z,3.63
2019-04-09T22:56:27.136Z,3.70
2019-04-09T22:58:55.925Z,3.73
2019-04-09T23:01:49.888Z,3.90
2019-04-09T23:04:42.331Z,4.20
2019-04-09T23:07:20.920Z,3.70
2019-04-09T23:10:07.595Z,3.13
2019-04-09T23:12:41.837Z,4.40
2019-04-09T23:15:19.202Z,4.20
2019-04-09T23:17:48.551Z,4.10
2019-04-09T23:20:18.622Z,3.93
2019-04-09T23:22:48.722Z,3.30
2019-04-09T23:25:18.069Z,3.30
2019-04-09T23:27:47.075Z,3.40
2019-04-09T23:30:17.560Z,3.23
2019-04-09T23:32:46.368Z,3.73
2019-04-09T23:35:15.233Z,3.90
2019-04-09T23:37:44.117Z,3.03
2019-04-09T23:40:13.262Z,3.40
2019-04-09T23:42:43.372Z,3.57
2019-04-09T23:45:12.681Z,3.77
2019-04-09T23:47:42.172Z,3.23
2019-04-09T23:50:11.063Z,3.53
2019-04-09T23:52:40.800Z,3.97
2019-04-09T23:55:10.186Z,7.43
2019-04-09T23:57:38.965Z,3.47
